sensor_id;sensor_type;location;lat;lon;timestamp;P1;durP1;ratioP1;P2;durP2;ratioP2
16854;SDS011;8543;54.522;18.550;2023-04-30T00:00:00;8.20;;;3.90;;
16854;SDS011;8543;54.522;18.550;2023-04-30T00:02:26;6.90;;;3.70;;
16854;SDS011;8543;54.522;18.550;2023-04-30T00:04:51;7.60;;;3.30;;
16854;SDS011;8543;54.522;18.550;2023-04-30T00:07:17;7.50;;;3.60;;
16854;SDS011;8543;54.522;18.550;2023-04-30T00:09:42;11.70;;;4.30;;
16854;SDS011;8543;54.522;18.550;2023-04-30T00:12:08;9.20;;;3.20;;
16854;SDS011;8543;54.522;18.550;2023-04-30T00:14:33;8.10;;;3.30;;
16854;SDS011;8543;54.522;18.550;2023-04-30T00:16:59;9.30;;;3.60;;
16854;SDS011;8543;54.522;18.550;2023-04-30T00:19:24;7.70;;;3.00;;
16854;SDS011;8543;54.522;18.550;2023-04-30T00:21:49;5.90;;;3.00;;
16854;SDS011;8543;54.522;18.550;2023-04-30T00:24:15;7.50;;;2.90;;
16854;SDS011;8543;54.522;18.550;2023-04-30T00:26:40;9.10;;;3.40;;
16854;SDS011;8543;54.522;18.550;2023-04-30T00:29:07;6.40;;;2.90;;
16854;SDS011;8543;54.522;18.550;2023-04-30T00:31:33;5.20;;;2.60;;
16854;SDS011;8543;54.522;18.550;2023-04-30T00:33:58;9.50;;;3.00;;
16854;SDS011;8543;54.522;18.550;2023-04-30T00:36:24;5.90;;;2.70;;
16854;SDS011;8543;54.522;18.550;2023-04-30T00:38:49;7.30;;;2.80;;
16854;SDS011;8543;54.522;18.550;2023-04-30T00:41:15;7.80;;;2.70;;
16854;SDS011;8543;54.522;18.550;2023-04-30T00:43:40;7.70;;;3.10;;
16854;SDS011;8543;54.522;18.550;2023-04-30T00:46:06;8.80;;;3.00;;
16854;SDS011;8543;54.522;18.550;2023-04-30T00:48:31;5.90;;;2.30;;
16854;SDS011;8543;54.522;18.550;2023-04-30T00:50:57;6.70;;;2.90;;
16854;SDS011;8543;54.522;18.550;2023-04-30T00:53:22;7.50;;;2.90;;
16854;SDS011;8543;54.522;18.550;2023-04-30T00:55:48;10.10;;;2.80;;
16854;SDS011;8543;54.522;18.550;2023-04-30T00:58:13;5.80;;;2.50;;
16854;SDS011;8543;54.522;18.550;2023-04-30T01:00:39;8.90;;;2.70;;
16854;SDS011;8543;54.522;18.550;2023-04-30T01:03:10;8.50;;;2.50;;
16854;SDS011;8543;54.522;18.550;2023-04-30T01:05:37;5.80;;;2.40;;
16854;SDS011;8543;54.522;18.550;2023-04-30T01:08:02;8.20;;;2.60;;
16854;SDS011;8543;54.522;18.550;2023-04-30T01:10:29;6.10;;;2.60;;
16854;SDS011;8543;54.522;18.550;2023-04-30T01:13:16;5.90;;;2.40;;
16854;SDS011;8543;54.522;18.550;2023-04-30T01:15:55;7.80;;;2.00;;
16854;SDS011;8543;54.522;18.550;2023-04-30T01:18:40;7.60;;;2.60;;
16854;SDS011;8543;54.522;18.550;2023-04-30T01:21:17;5.50;;;2.00;;
16854;SDS011;8543;54.522;18.550;2023-04-30T01:29:16;5.80;;;2.40;;
16854;SDS011;8543;54.522;18.550;2023-04-30T01:31:43;6.90;;;2.60;;
16854;SDS011;8543;54.522;18.550;2023-04-30T01:34:11;6.80;;;2.40;;
16854;SDS011;8543;54.522;18.550;2023-04-30T01:37:10;8.40;;;2.60;;
16854;SDS011;8543;54.522;18.550;2023-04-30T01:39:49;5.80;;;2.30;;
16854;SDS011;8543;54.522;18.550;2023-04-30T01:50:45;10.00;;;2.80;;
16854;SDS011;8543;54.522;18.550;2023-04-30T01:53:16;7.60;;;2.60;;
16854;SDS011;8543;54.522;18.550;2023-04-30T01:55:56;6.70;;;2.50;;
16854;SDS011;8543;54.522;18.550;2023-04-30T01:58:28;8.00;;;2.40;;
16854;SDS011;8543;54.522;18.550;2023-04-30T02:00:55;9.30;;;2.20;;
16854;SDS011;8543;54.522;18.550;2023-04-30T02:03:20;8.20;;;2.20;;
16854;SDS011;8543;54.522;18.550;2023-04-30T02:05:46;8.60;;;2.70;;
16854;SDS011;8543;54.522;18.550;2023-04-30T02:08:12;6.80;;;2.40;;
16854;SDS011;8543;54.522;18.550;2023-04-30T02:10:37;6.20;;;2.60;;
16854;SDS011;8543;54.522;18.550;2023-04-30T02:13:03;7.80;;;2.70;;
16854;SDS011;8543;54.522;18.550;2023-04-30T02:15:28;9.20;;;2.60;;
16854;SDS011;8543;54.522;18.550;2023-04-30T02:17:54;7.80;;;2.60;;
16854;SDS011;8543;54.522;18.550;2023-04-30T02:20:19;7.00;;;2.80;;
16854;SDS011;8543;54.522;18.550;2023-04-30T02:22:45;6.40;;;2.50;;
16854;SDS011;8543;54.522;18.550;2023-04-30T02:25:10;11.20;;;2.60;;
16854;SDS011;8543;54.522;18.550;2023-04-30T02:27:37;9.30;;;2.50;;
16854;SDS011;8543;54.522;18.550;2023-04-30T02:30:02;6.80;;;2.50;;
16854;SDS011;8543;54.522;18.550;2023-04-30T02:32:28;8.50;;;3.30;;
16854;SDS011;8543;54.522;18.550;2023-04-30T02:34:54;8.90;;;2.50;;
16854;SDS011;8543;54.522;18.550;2023-04-30T02:37:19;7.20;;;2.70;;
16854;SDS011;8543;54.522;18.550;2023-04-30T02:39:45;7.00;;;2.70;;
16854;SDS011;8543;54.522;18.550;2023-04-30T02:42:10;7.40;;;2.50;;
16854;SDS011;8543;54.522;18.550;2023-04-30T02:44:36;7.70;;;2.30;;
16854;SDS011;8543;54.522;18.550;2023-04-30T02:47:01;5.60;;;2.00;;
16854;SDS011;8543;54.522;18.550;2023-04-30T02:49:27;9.50;;;2.80;;
16854;SDS011;8543;54.522;18.550;2023-04-30T02:51:53;7.30;;;2.50;;
16854;SDS011;8543;54.522;18.550;2023-04-30T02:54:19;5.20;;;2.50;;
16854;SDS011;8543;54.522;18.550;2023-04-30T02:56:45;6.70;;;2.50;;
16854;SDS011;8543;54.522;18.550;2023-04-30T02:59:11;5.80;;;2.30;;
16854;SDS011;8543;54.522;18.550;2023-04-30T03:01:36;7.90;;;2.60;;
16854;SDS011;8543;54.522;18.550;2023-04-30T03:04:02;9.60;;;2.70;;
16854;SDS011;8543;54.522;18.550;2023-04-30T03:06:30;7.70;;;2.60;;
16854;SDS011;8543;54.522;18.550;2023-04-30T03:08:56;6.50;;;2.60;;
16854;SDS011;8543;54.522;18.550;2023-04-30T03:11:22;7.60;;;2.50;;
16854;SDS011;8543;54.522;18.550;2023-04-30T03:13:48;6.20;;;2.50;;
16854;SDS011;8543;54.522;18.550;2023-04-30T03:16:19;7.90;;;2.90;;
16854;SDS011;8543;54.522;18.550;2023-04-30T03:18:45;8.60;;;2.60;;
16854;SDS011;8543;54.522;18.550;2023-04-30T03:21:11;10.20;;;3.00;;
16854;SDS011;8543;54.522;18.550;2023-04-30T03:23:37;8.40;;;2.30;;
16854;SDS011;8543;54.522;18.550;2023-04-30T03:26:02;6.30;;;2.30;;
16854;SDS011;8543;54.522;18.550;2023-04-30T03:28:28;8.00;;;2.40;;
16854;SDS011;8543;54.522;18.550;2023-04-30T03:30:53;9.70;;;2.60;;
16854;SDS011;8543;54.522;18.550;2023-04-30T03:33:19;10.90;;;2.50;;
16854;SDS011;8543;54.522;18.550;2023-04-30T03:35:44;4.80;;;2.20;;
16854;SDS011;8543;54.522;18.550;2023-04-30T03:38:10;9.00;;;2.40;;
16854;SDS011;8543;54.522;18.550;2023-04-30T03:40:35;9.50;;;2.70;;
16854;SDS011;8543;54.522;18.550;2023-04-30T03:43:00;6.20;;;2.60;;
16854;SDS011;8543;54.522;18.550;2023-04-30T03:45:26;4.90;;;2.30;;
16854;SDS011;8543;54.522;18.550;2023-04-30T03:47:51;10.00;;;2.70;;
16854;SDS011;8543;54.522;18.550;2023-04-30T03:50:17;6.50;;;2.40;;
16854;SDS011;8543;54.522;18.550;2023-04-30T03:52:43;7.60;;;2.70;;
16854;SDS011;8543;54.522;18.550;2023-04-30T03:55:09;9.60;;;2.70;;
16854;SDS011;8543;54.522;18.550;2023-04-30T03:57:35;6.50;;;2.60;;
16854;SDS011;8543;54.522;18.550;2023-04-30T04:00:00;7.70;;;3.00;;
16854;SDS011;8543;54.522;18.550;2023-04-30T04:02:29;6.50;;;2.70;;
16854;SDS011;8543;54.522;18.550;2023-04-30T04:04:55;9.00;;;2.60;;
16854;SDS011;8543;54.522;18.550;2023-04-30T04:07:21;7.30;;;2.90;;
16854;SDS011;8543;54.522;18.550;2023-04-30T04:09:46;7.60;;;3.00;;
16854;SDS011;8543;54.522;18.550;2023-04-30T04:12:12;7.60;;;2.40;;
16854;SDS011;8543;54.522;18.550;2023-04-30T04:14:37;6.20;;;2.40;;
16854;SDS011;8543;54.522;18.550;2023-04-30T04:17:03;7.50;;;2.60;;
16854;SDS011;8543;54.522;18.550;2023-04-30T04:19:31;8.90;;;2.90;;
16854;SDS011;8543;54.522;18.550;2023-04-30T04:21:56;7.90;;;2.60;;
16854;SDS011;8543;54.522;18.550;2023-04-30T04:24:25;9.90;;;3.00;;
16854;SDS011;8543;54.522;18.550;2023-04-30T04:26:50;8.80;;;3.10;;
16854;SDS011;8543;54.522;18.550;2023-04-30T04:29:16;6.80;;;2.70;;
16854;SDS011;8543;54.522;18.550;2023-04-30T04:31:41;10.10;;;3.00;;
16854;SDS011;8543;54.522;18.550;2023-04-30T04:34:07;7.70;;;2.70;;
16854;SDS011;8543;54.522;18.550;2023-04-30T04:36:32;9.70;;;3.20;;
16854;SDS011;8543;54.522;18.550;2023-04-30T04:38:58;11.60;;;4.50;;
16854;SDS011;8543;54.522;18.550;2023-04-30T04:41:27;9.10;;;2.70;;
16854;SDS011;8543;54.522;18.550;2023-04-30T04:43:53;9.70;;;2.90;;
16854;SDS011;8543;54.522;18.550;2023-04-30T04:46:20;10.40;;;2.80;;
16854;SDS011;8543;54.522;18.550;2023-04-30T04:48:46;11.20;;;3.00;;
16854;SDS011;8543;54.522;18.550;2023-04-30T04:51:12;6.80;;;2.70;;
16854;SDS011;8543;54.522;18.550;2023-04-30T04:53:37;11.00;;;3.30;;
16854;SDS011;8543;54.522;18.550;2023-04-30T04:56:03;6.50;;;3.00;;
16854;SDS011;8543;54.522;18.550;2023-04-30T04:58:28;9.00;;;2.80;;
16854;SDS011;8543;54.522;18.550;2023-04-30T05:00:54;7.20;;;2.70;;
16854;SDS011;8543;54.522;18.550;2023-04-30T05:03:19;8.30;;;2.80;;
16854;SDS011;8543;54.522;18.550;2023-04-30T05:05:45;8.60;;;3.20;;
16854;SDS011;8543;54.522;18.550;2023-04-30T05:08:10;8.70;;;3.40;;
16854;SDS011;8543;54.522;18.550;2023-04-30T05:10:36;10.80;;;3.10;;
16854;SDS011;8543;54.522;18.550;2023-04-30T05:13:01;9.20;;;2.90;;
16854;SDS011;8543;54.522;18.550;2023-04-30T05:15:27;6.60;;;2.90;;
16854;SDS011;8543;54.522;18.550;2023-04-30T05:17:52;10.80;;;3.00;;
16854;SDS011;8543;54.522;18.550;2023-04-30T05:20:17;8.80;;;3.00;;
16854;SDS011;8543;54.522;18.550;2023-04-30T05:22:43;6.40;;;2.90;;
16854;SDS011;8543;54.522;18.550;2023-04-30T05:25:08;7.80;;;3.10;;
16854;SDS011;8543;54.522;18.550;2023-04-30T05:27:34;7.80;;;3.30;;
16854;SDS011;8543;54.522;18.550;2023-04-30T05:30:00;7.80;;;2.90;;
16854;SDS011;8543;54.522;18.550;2023-04-30T05:32:26;8.90;;;3.10;;
16854;SDS011;8543;54.522;18.550;2023-04-30T05:34:52;10.00;;;3.40;;
16854;SDS011;8543;54.522;18.550;2023-04-30T05:37:17;8.10;;;3.20;;
16854;SDS011;8543;54.522;18.550;2023-04-30T05:39:44;8.80;;;3.30;;
16854;SDS011;8543;54.522;18.550;2023-04-30T05:42:10;8.20;;;3.50;;
16854;SDS011;8543;54.522;18.550;2023-04-30T05:44:35;7.50;;;3.20;;
16854;SDS011;8543;54.522;18.550;2023-04-30T05:47:01;9.60;;;3.30;;
16854;SDS011;8543;54.522;18.550;2023-04-30T05:49:26;8.30;;;3.50;;
16854;SDS011;8543;54.522;18.550;2023-04-30T05:51:52;9.90;;;3.50;;
16854;SDS011;8543;54.522;18.550;2023-04-30T05:54:17;10.60;;;3.80;;
16854;SDS011;8543;54.522;18.550;2023-04-30T05:56:42;9.60;;;3.50;;
16854;SDS011;8543;54.522;18.550;2023-04-30T05:59:08;7.80;;;3.20;;
16854;SDS011;8543;54.522;18.550;2023-04-30T06:01:33;9.70;;;4.00;;
16854;SDS011;8543;54.522;18.550;2023-04-30T06:03:59;6.90;;;3.40;;
16854;SDS011;8543;54.522;18.550;2023-04-30T06:06:25;8.10;;;3.40;;
16854;SDS011;8543;54.522;18.550;2023-04-30T06:08:52;7.10;;;3.40;;
16854;SDS011;8543;54.522;18.550;2023-04-30T06:11:17;9.50;;;3.90;;
16854;SDS011;8543;54.522;18.550;2023-04-30T06:13:43;8.20;;;3.30;;
16854;SDS011;8543;54.522;18.550;2023-04-30T06:16:11;8.20;;;3.40;;
16854;SDS011;8543;54.522;18.550;2023-04-30T06:18:37;7.30;;;3.30;;
16854;SDS011;8543;54.522;18.550;2023-04-30T06:21:02;8.00;;;3.50;;
16854;SDS011;8543;54.522;18.550;2023-04-30T06:23:28;8.60;;;3.80;;
16854;SDS011;8543;54.522;18.550;2023-04-30T06:25:53;8.70;;;3.90;;
16854;SDS011;8543;54.522;18.550;2023-04-30T06:28:18;7.70;;;3.60;;
16854;SDS011;8543;54.522;18.550;2023-04-30T06:30:44;6.90;;;3.70;;
16854;SDS011;8543;54.522;18.550;2023-04-30T06:33:10;7.80;;;3.60;;
16854;SDS011;8543;54.522;18.550;2023-04-30T06:35:35;9.80;;;3.60;;
16854;SDS011;8543;54.522;18.550;2023-04-30T06:38:01;7.90;;;3.30;;
16854;SDS011;8543;54.522;18.550;2023-04-30T06:40:26;7.00;;;3.40;;
16854;SDS011;8543;54.522;18.550;2023-04-30T06:42:51;7.70;;;3.30;;
16854;SDS011;8543;54.522;18.550;2023-04-30T06:45:18;6.10;;;3.40;;
16854;SDS011;8543;54.522;18.550;2023-04-30T06:47:44;7.00;;;3.40;;
16854;SDS011;8543;54.522;18.550;2023-04-30T06:50:11;8.40;;;3.90;;
16854;SDS011;8543;54.522;18.550;2023-04-30T06:52:36;6.70;;;3.50;;
16854;SDS011;8543;54.522;18.550;2023-04-30T06:55:02;7.70;;;3.60;;
16854;SDS011;8543;54.522;18.550;2023-04-30T06:57:28;6.60;;;3.80;;
16854;SDS011;8543;54.522;18.550;2023-04-30T06:59:53;9.00;;;3.80;;
16854;SDS011;8543;54.522;18.550;2023-04-30T07:02:19;7.30;;;3.50;;
16854;SDS011;8543;54.522;18.550;2023-04-30T07:04:45;10.50;;;3.70;;
16854;SDS011;8543;54.522;18.550;2023-04-30T07:07:10;6.30;;;3.30;;
16854;SDS011;8543;54.522;18.550;2023-04-30T07:09:36;9.10;;;3.80;;
16854;SDS011;8543;54.522;18.550;2023-04-30T07:12:02;8.90;;;3.50;;
16854;SDS011;8543;54.522;18.550;2023-04-30T07:14:27;5.80;;;3.20;;
16854;SDS011;8543;54.522;18.550;2023-04-30T07:16:53;6.50;;;3.40;;
16854;SDS011;8543;54.522;18.550;2023-04-30T07:19:19;6.60;;;3.80;;
16854;SDS011;8543;54.522;18.550;2023-04-30T07:21:45;6.90;;;3.80;;
16854;SDS011;8543;54.522;18.550;2023-04-30T07:24:10;7.20;;;3.60;;
16854;SDS011;8543;54.522;18.550;2023-04-30T07:26:36;7.30;;;3.30;;
16854;SDS011;8543;54.522;18.550;2023-04-30T07:29:01;7.40;;;3.70;;
16854;SDS011;8543;54.522;18.550;2023-04-30T07:31:27;6.60;;;3.30;;
16854;SDS011;8543;54.522;18.550;2023-04-30T07:33:53;7.40;;;3.40;;
16854;SDS011;8543;54.522;18.550;2023-04-30T07:36:19;6.50;;;3.20;;
16854;SDS011;8543;54.522;18.550;2023-04-30T07:38:45;6.30;;;3.20;;
16854;SDS011;8543;54.522;18.550;2023-04-30T07:41:11;6.50;;;3.50;;
16854;SDS011;8543;54.522;18.550;2023-04-30T07:43:36;6.20;;;3.00;;
16854;SDS011;8543;54.522;18.550;2023-04-30T07:46:02;5.80;;;3.10;;
16854;SDS011;8543;54.522;18.550;2023-04-30T07:48:28;6.50;;;3.20;;
16854;SDS011;8543;54.522;18.550;2023-04-30T07:50:54;7.20;;;3.50;;
16854;SDS011;8543;54.522;18.550;2023-04-30T07:53:21;10.10;;;3.00;;
16854;SDS011;8543;54.522;18.550;2023-04-30T07:55:47;9.10;;;3.10;;
16854;SDS011;8543;54.522;18.550;2023-04-30T07:58:12;7.20;;;3.20;;
16854;SDS011;8543;54.522;18.550;2023-04-30T08:00:38;6.40;;;3.00;;
16854;SDS011;8543;54.522;18.550;2023-04-30T08:03:03;5.10;;;2.60;;
16854;SDS011;8543;54.522;18.550;2023-04-30T08:05:29;6.20;;;2.60;;
16854;SDS011;8543;54.522;18.550;2023-04-30T08:07:55;5.80;;;2.70;;
16854;SDS011;8543;54.522;18.550;2023-04-30T08:10:20;6.00;;;2.90;;
16854;SDS011;8543;54.522;18.550;2023-04-30T08:12:46;5.80;;;2.80;;
16854;SDS011;8543;54.522;18.550;2023-04-30T08:15:11;5.80;;;2.60;;
16854;SDS011;8543;54.522;18.550;2023-04-30T08:17:37;6.80;;;3.00;;
16854;SDS011;8543;54.522;18.550;2023-04-30T08:20:03;5.60;;;2.50;;
16854;SDS011;8543;54.522;18.550;2023-04-30T08:22:29;7.50;;;2.60;;
16854;SDS011;8543;54.522;18.550;2023-04-30T08:24:54;5.00;;;2.00;;
16854;SDS011;8543;54.522;18.550;2023-04-30T08:27:20;6.50;;;2.60;;
16854;SDS011;8543;54.522;18.550;2023-04-30T08:29:46;8.70;;;2.50;;
16854;SDS011;8543;54.522;18.550;2023-04-30T08:32:12;6.80;;;2.40;;
16854;SDS011;8543;54.522;18.550;2023-04-30T08:34:37;7.70;;;3.00;;
16854;SDS011;8543;54.522;18.550;2023-04-30T08:37:05;6.50;;;2.60;;
16854;SDS011;8543;54.522;18.550;2023-04-30T08:39:31;6.30;;;2.50;;
16854;SDS011;8543;54.522;18.550;2023-04-30T08:41:56;5.30;;;2.40;;
16854;SDS011;8543;54.522;18.550;2023-04-30T08:44:26;6.10;;;2.40;;
16854;SDS011;8543;54.522;18.550;2023-04-30T08:46:53;8.50;;;2.50;;
16854;SDS011;8543;54.522;18.550;2023-04-30T08:49:22;5.10;;;2.20;;
16854;SDS011;8543;54.522;18.550;2023-04-30T08:51:48;7.60;;;2.40;;
16854;SDS011;8543;54.522;18.550;2023-04-30T08:54:14;6.10;;;2.20;;
16854;SDS011;8543;54.522;18.550;2023-04-30T08:56:39;7.30;;;2.50;;
16854;SDS011;8543;54.522;18.550;2023-04-30T08:59:05;6.40;;;2.20;;
16854;SDS011;8543;54.522;18.550;2023-04-30T09:01:31;6.10;;;2.00;;
16854;SDS011;8543;54.522;18.550;2023-04-30T09:03:58;5.40;;;2.10;;
16854;SDS011;8543;54.522;18.550;2023-04-30T09:06:23;5.90;;;2.10;;
16854;SDS011;8543;54.522;18.550;2023-04-30T09:08:49;9.00;;;2.00;;
16854;SDS011;8543;54.522;18.550;2023-04-30T09:11:30;5.60;;;2.20;;
16854;SDS011;8543;54.522;18.550;2023-04-30T09:13:57;6.00;;;1.90;;
16854;SDS011;8543;54.522;18.550;2023-04-30T09:16:24;8.70;;;1.90;;
16854;SDS011;8543;54.522;18.550;2023-04-30T09:18:51;4.30;;;2.00;;
16854;SDS011;8543;54.522;18.550;2023-04-30T09:21:29;8.10;;;2.10;;
16854;SDS011;8543;54.522;18.550;2023-04-30T09:23:59;5.00;;;2.20;;
16854;SDS011;8543;54.522;18.550;2023-04-30T09:26:30;6.70;;;2.30;;
16854;SDS011;8543;54.522;18.550;2023-04-30T09:28:57;4.70;;;2.00;;
16854;SDS011;8543;54.522;18.550;2023-04-30T09:31:23;6.50;;;2.20;;
16854;SDS011;8543;54.522;18.550;2023-04-30T09:33:50;6.80;;;2.30;;
16854;SDS011;8543;54.522;18.550;2023-04-30T09:36:17;5.60;;;2.10;;
16854;SDS011;8543;54.522;18.550;2023-04-30T09:38:42;3.80;;;2.10;;
16854;SDS011;8543;54.522;18.550;2023-04-30T09:41:19;5.70;;;2.60;;
16854;SDS011;8543;54.522;18.550;2023-04-30T09:43:54;3.70;;;1.80;;
16854;SDS011;8543;54.522;18.550;2023-04-30T09:46:21;6.10;;;2.00;;
16854;SDS011;8543;54.522;18.550;2023-04-30T09:48:55;5.80;;;2.30;;
16854;SDS011;8543;54.522;18.550;2023-04-30T09:51:22;2.80;;;1.60;;
16854;SDS011;8543;54.522;18.550;2023-04-30T09:53:48;4.70;;;2.00;;
16854;SDS011;8543;54.522;18.550;2023-04-30T09:56:15;6.20;;;2.10;;
16854;SDS011;8543;54.522;18.550;2023-04-30T09:58:49;5.70;;;2.20;;
16854;SDS011;8543;54.522;18.550;2023-04-30T10:01:18;7.30;;;2.10;;
16854;SDS011;8543;54.522;18.550;2023-04-30T10:03:45;6.90;;;2.00;;
16854;SDS011;8543;54.522;18.550;2023-04-30T10:06:12;3.90;;;1.80;;
16854;SDS011;8543;54.522;18.550;2023-04-30T10:08:40;4.40;;;1.90;;
16854;SDS011;8543;54.522;18.550;2023-04-30T10:11:07;7.70;;;2.30;;
16854;SDS011;8543;54.522;18.550;2023-04-30T10:16:32;6.70;;;2.00;;
16854;SDS011;8543;54.522;18.550;2023-04-30T10:19:06;5.40;;;2.00;;
16854;SDS011;8543;54.522;18.550;2023-04-30T10:21:33;6.10;;;1.80;;
16854;SDS011;8543;54.522;18.550;2023-04-30T10:23:59;4.50;;;2.10;;
16854;SDS011;8543;54.522;18.550;2023-04-30T10:26:25;4.80;;;1.80;;
16854;SDS011;8543;54.522;18.550;2023-04-30T10:28:59;8.40;;;1.90;;
16854;SDS011;8543;54.522;18.550;2023-04-30T10:31:25;6.70;;;2.40;;
16854;SDS011;8543;54.522;18.550;2023-04-30T10:36:32;4.80;;;1.90;;
16854;SDS011;8543;54.522;18.550;2023-04-30T10:39:08;5.10;;;2.10;;
16854;SDS011;8543;54.522;18.550;2023-04-30T10:41:35;8.00;;;2.00;;
16854;SDS011;8543;54.522;18.550;2023-04-30T10:44:01;6.50;;;2.30;;
16854;SDS011;8543;54.522;18.550;2023-04-30T10:46:27;5.50;;;1.90;;
16854;SDS011;8543;54.522;18.550;2023-04-30T10:48:53;5.20;;;2.10;;
16854;SDS011;8543;54.522;18.550;2023-04-30T10:51:19;6.70;;;2.40;;
16854;SDS011;8543;54.522;18.550;2023-04-30T10:53:46;5.20;;;2.10;;
16854;SDS011;8543;54.522;18.550;2023-04-30T10:56:15;12.30;;;2.50;;
16854;SDS011;8543;54.522;18.550;2023-04-30T10:58:57;4.90;;;1.90;;
16854;SDS011;8543;54.522;18.550;2023-04-30T11:01:23;5.00;;;1.90;;
16854;SDS011;8543;54.522;18.550;2023-04-30T11:09:18;5.90;;;2.20;;
16854;SDS011;8543;54.522;18.550;2023-04-30T11:11:44;12.80;;;2.80;;
16854;SDS011;8543;54.522;18.550;2023-04-30T11:14:11;5.10;;;2.20;;
16854;SDS011;8543;54.522;18.550;2023-04-30T11:16:37;7.20;;;2.10;;
16854;SDS011;8543;54.522;18.550;2023-04-30T11:19:09;7.90;;;2.40;;
16854;SDS011;8543;54.522;18.550;2023-04-30T11:27:34;5.80;;;2.30;;
16854;SDS011;8543;54.522;18.550;2023-04-30T11:30:09;5.00;;;2.00;;
16854;SDS011;8543;54.522;18.550;2023-04-30T11:32:40;8.80;;;2.30;;
16854;SDS011;8543;54.522;18.550;2023-04-30T11:35:07;9.80;;;2.30;;
16854;SDS011;8543;54.522;18.550;2023-04-30T11:37:33;7.80;;;2.10;;
16854;SDS011;8543;54.522;18.550;2023-04-30T11:40:01;5.90;;;2.20;;
16854;SDS011;8543;54.522;18.550;2023-04-30T11:42:28;5.40;;;2.20;;
16854;SDS011;8543;54.522;18.550;2023-04-30T11:45:10;10.00;;;2.40;;
16854;SDS011;8543;54.522;18.550;2023-04-30T11:50:09;5.30;;;2.20;;
16854;SDS011;8543;54.522;18.550;2023-04-30T11:52:51;9.40;;;2.50;;
16854;SDS011;8543;54.522;18.550;2023-04-30T11:55:21;8.10;;;2.40;;
16854;SDS011;8543;54.522;18.550;2023-04-30T11:57:49;5.60;;;2.20;;
16854;SDS011;8543;54.522;18.550;2023-04-30T12:00:18;8.90;;;2.40;;
16854;SDS011;8543;54.522;18.550;2023-04-30T12:02:45;5.80;;;2.20;;
16854;SDS011;8543;54.522;18.550;2023-04-30T12:05:15;3.00;;;1.80;;
16854;SDS011;8543;54.522;18.550;2023-04-30T12:07:49;4.80;;;2.30;;
16854;SDS011;8543;54.522;18.550;2023-04-30T12:10:17;5.00;;;2.20;;
16854;SDS011;8543;54.522;18.550;2023-04-30T12:12:44;9.20;;;2.40;;
16854;SDS011;8543;54.522;18.550;2023-04-30T12:15:13;6.40;;;2.50;;
16854;SDS011;8543;54.522;18.550;2023-04-30T12:17:39;5.90;;;2.40;;
16854;SDS011;8543;54.522;18.550;2023-04-30T12:20:05;5.70;;;2.60;;
16854;SDS011;8543;54.522;18.550;2023-04-30T12:22:32;6.40;;;2.50;;
16854;SDS011;8543;54.522;18.550;2023-04-30T12:24:58;5.80;;;2.40;;
16854;SDS011;8543;54.522;18.550;2023-04-30T12:27:24;5.60;;;2.70;;
16854;SDS011;8543;54.522;18.550;2023-04-30T12:29:50;5.30;;;2.40;;
16854;SDS011;8543;54.522;18.550;2023-04-30T12:32:19;6.60;;;2.30;;
16854;SDS011;8543;54.522;18.550;2023-04-30T12:34:45;5.20;;;2.50;;
16854;SDS011;8543;54.522;18.550;2023-04-30T12:37:13;4.90;;;2.50;;
16854;SDS011;8543;54.522;18.550;2023-04-30T12:39:40;6.30;;;2.50;;
16854;SDS011;8543;54.522;18.550;2023-04-30T12:42:06;6.00;;;2.70;;
16854;SDS011;8543;54.522;18.550;2023-04-30T12:44:32;7.60;;;2.60;;
16854;SDS011;8543;54.522;18.550;2023-04-30T12:47:07;4.90;;;2.20;;
16854;SDS011;8543;54.522;18.550;2023-04-30T12:49:34;6.50;;;2.50;;
16854;SDS011;8543;54.522;18.550;2023-04-30T12:52:21;5.10;;;2.90;;
16854;SDS011;8543;54.522;18.550;2023-04-30T12:54:48;6.30;;;2.30;;
16854;SDS011;8543;54.522;18.550;2023-04-30T12:57:13;5.20;;;2.40;;
16854;SDS011;8543;54.522;18.550;2023-04-30T12:59:39;5.10;;;2.30;;
16854;SDS011;8543;54.522;18.550;2023-04-30T13:02:22;5.50;;;2.30;;
16854;SDS011;8543;54.522;18.550;2023-04-30T13:04:48;5.10;;;2.30;;
16854;SDS011;8543;54.522;18.550;2023-04-30T13:07:14;6.70;;;2.40;;
16854;SDS011;8543;54.522;18.550;2023-04-30T13:09:39;7.00;;;2.50;;
16854;SDS011;8543;54.522;18.550;2023-04-30T13:12:05;6.50;;;2.40;;
16854;SDS011;8543;54.522;18.550;2023-04-30T13:14:31;4.70;;;2.40;;
16854;SDS011;8543;54.522;18.550;2023-04-30T13:16:57;6.40;;;2.40;;
16854;SDS011;8543;54.522;18.550;2023-04-30T13:19:22;9.80;;;3.00;;
16854;SDS011;8543;54.522;18.550;2023-04-30T13:21:48;6.50;;;2.60;;
16854;SDS011;8543;54.522;18.550;2023-04-30T13:24:13;5.40;;;2.60;;
16854;SDS011;8543;54.522;18.550;2023-04-30T13:26:40;7.70;;;2.60;;
16854;SDS011;8543;54.522;18.550;2023-04-30T13:29:05;8.00;;;3.00;;
16854;SDS011;8543;54.522;18.550;2023-04-30T13:31:31;6.40;;;2.50;;
16854;SDS011;8543;54.522;18.550;2023-04-30T13:33:56;6.30;;;2.30;;
16854;SDS011;8543;54.522;18.550;2023-04-30T13:36:22;7.30;;;2.20;;
16854;SDS011;8543;54.522;18.550;2023-04-30T13:38:47;7.90;;;2.30;;
16854;SDS011;8543;54.522;18.550;2023-04-30T13:41:13;5.90;;;2.60;;
16854;SDS011;8543;54.522;18.550;2023-04-30T13:43:39;8.60;;;2.60;;
16854;SDS011;8543;54.522;18.550;2023-04-30T13:46:06;5.60;;;2.80;;
16854;SDS011;8543;54.522;18.550;2023-04-30T13:48:32;4.70;;;2.50;;
16854;SDS011;8543;54.522;18.550;2023-04-30T13:50:58;4.80;;;2.40;;
16854;SDS011;8543;54.522;18.550;2023-04-30T13:53:24;8.20;;;2.90;;
16854;SDS011;8543;54.522;18.550;2023-04-30T13:55:50;6.50;;;2.50;;
16854;SDS011;8543;54.522;18.550;2023-04-30T13:58:15;7.70;;;2.70;;
16854;SDS011;8543;54.522;18.550;2023-04-30T14:00:41;5.50;;;2.50;;
16854;SDS011;8543;54.522;18.550;2023-04-30T14:03:06;5.20;;;2.60;;
16854;SDS011;8543;54.522;18.550;2023-04-30T14:05:32;5.40;;;2.30;;
16854;SDS011;8543;54.522;18.550;2023-04-30T14:07:57;5.80;;;2.50;;
16854;SDS011;8543;54.522;18.550;2023-04-30T14:10:23;6.40;;;2.60;;
16854;SDS011;8543;54.522;18.550;2023-04-30T14:12:48;4.70;;;2.60;;
16854;SDS011;8543;54.522;18.550;2023-04-30T14:15:14;4.80;;;2.40;;
16854;SDS011;8543;54.522;18.550;2023-04-30T14:17:39;5.10;;;2.60;;
16854;SDS011;8543;54.522;18.550;2023-04-30T14:20:05;5.90;;;2.90;;
16854;SDS011;8543;54.522;18.550;2023-04-30T14:22:32;4.90;;;2.70;;
16854;SDS011;8543;54.522;18.550;2023-04-30T14:24:59;6.50;;;2.70;;
16854;SDS011;8543;54.522;18.550;2023-04-30T14:27:25;5.60;;;2.60;;
16854;SDS011;8543;54.522;18.550;2023-04-30T14:29:50;5.50;;;2.60;;
16854;SDS011;8543;54.522;18.550;2023-04-30T14:32:16;6.30;;;2.80;;
16854;SDS011;8543;54.522;18.550;2023-04-30T14:34:41;5.90;;;2.90;;
16854;SDS011;8543;54.522;18.550;2023-04-30T14:37:08;7.40;;;2.50;;
16854;SDS011;8543;54.522;18.550;2023-04-30T14:39:34;7.30;;;2.80;;
16854;SDS011;8543;54.522;18.550;2023-04-30T14:41:59;5.60;;;2.80;;
16854;SDS011;8543;54.522;18.550;2023-04-30T14:44:25;7.10;;;2.90;;
16854;SDS011;8543;54.522;18.550;2023-04-30T14:46:51;4.70;;;2.50;;
16854;SDS011;8543;54.522;18.550;2023-04-30T14:49:17;9.00;;;3.20;;
16854;SDS011;8543;54.522;18.550;2023-04-30T14:51:43;6.20;;;3.40;;
16854;SDS011;8543;54.522;18.550;2023-04-30T14:54:08;7.00;;;3.00;;
16854;SDS011;8543;54.522;18.550;2023-04-30T14:56:33;6.20;;;3.10;;
16854;SDS011;8543;54.522;18.550;2023-04-30T14:58:59;6.20;;;2.90;;
16854;SDS011;8543;54.522;18.550;2023-04-30T15:01:25;6.40;;;2.80;;
16854;SDS011;8543;54.522;18.550;2023-04-30T15:03:50;6.10;;;2.90;;
16854;SDS011;8543;54.522;18.550;2023-04-30T15:06:17;7.60;;;3.10;;
16854;SDS011;8543;54.522;18.550;2023-04-30T15:08:43;8.40;;;3.30;;
16854;SDS011;8543;54.522;18.550;2023-04-30T15:11:08;6.90;;;2.80;;
16854;SDS011;8543;54.522;18.550;2023-04-30T15:13:35;6.20;;;2.70;;
16854;SDS011;8543;54.522;18.550;2023-04-30T15:16:01;4.80;;;2.50;;
16854;SDS011;8543;54.522;18.550;2023-04-30T15:18:26;7.00;;;2.70;;